createdAt,value
2018-09-21T00:01:02.478Z,3.37
2018-09-21T00:03:30.211Z,3.10
2018-09-21T00:05:58.151Z,3.30
2018-09-21T00:08:26.038Z,3.50
2018-09-21T00:10:53.708Z,2.70
2018-09-21T00:13:21.766Z,3.07
2018-09-21T00:15:49.474Z,3.47
2018-09-21T00:18:17.406Z,2.90
2018-09-21T00:20:45.049Z,3.87
2018-09-21T00:23:12.677Z,3.30
2018-09-21T00:25:40.352Z,3.40
2018-09-21T00:28:08.017Z,3.43
2018-09-21T00:30:35.658Z,3.33
2018-09-21T00:33:03.670Z,3.67
2018-09-21T00:35:31.254Z,4.00
2018-09-21T00:37:58.893Z,3.47
2018-09-21T00:40:26.698Z,3.00
2018-09-21T00:42:54.346Z,3.17
2018-09-21T00:45:21.966Z,3.43
2018-09-21T00:47:50.035Z,2.67
2018-09-21T00:50:17.661Z,3.57
2018-09-21T00:52:45.597Z,3.23
2018-09-21T00:55:13.262Z,3.40
2018-09-21T00:57:40.869Z,3.87
2018-09-21T01:00:08.516Z,3.50
2018-09-21T01:02:36.163Z,3.00
2018-09-21T01:05:03.856Z,3.87
2018-09-21T01:07:31.538Z,3.80
2018-09-21T01:09:59.167Z,3.50
2018-09-21T01:12:27.118Z,3.60
2018-09-21T01:14:55.161Z,3.83
2018-09-21T01:17:22.794Z,3.57
2018-09-21T01:19:50.837Z,2.77
2018-09-21T01:22:18.490Z,3.40
2018-09-21T01:24:46.259Z,3.60
2018-09-21T01:27:14.706Z,3.10
2018-09-21T01:29:42.910Z,3.80
2018-09-21T01:32:10.698Z,3.20
2018-09-21T01:34:38.359Z,3.70
2018-09-21T01:37:06.046Z,4.23
2018-09-21T01:39:34.081Z,3.63
2018-09-21T01:42:01.993Z,3.60
2018-09-21T01:44:29.631Z,4.20
2018-09-21T01:46:57.635Z,3.80
2018-09-21T01:49:25.312Z,3.20
2018-09-21T01:51:53.501Z,4.20
2018-09-21T01:54:22.038Z,3.53
2018-09-21T01:56:49.648Z,3.57
2018-09-21T01:59:17.296Z,3.97
2018-09-21T02:01:45.357Z,3.90
2018-09-21T02:04:12.977Z,3.57
2018-09-21T02:06:40.670Z,3.87
2018-09-21T02:09:09.596Z,3.70
2018-09-21T02:11:37.731Z,3.80
2018-09-21T02:14:05.477Z,2.73
2018-09-21T02:16:33.503Z,3.60
2018-09-21T02:19:01.130Z,3.90
2018-09-21T02:21:28.790Z,3.37
2018-09-21T02:23:56.480Z,3.60
2018-09-21T02:26:24.174Z,4.80
2018-09-21T02:28:52.090Z,3.67
2018-09-21T02:31:19.739Z,3.60
2018-09-21T02:33:47.443Z,3.50
2018-09-21T02:36:15.471Z,3.67
2018-09-21T02:38:43.158Z,3.90
2018-09-21T02:41:10.801Z,4.27
2018-09-21T02:43:38.525Z,3.80
2018-09-21T02:46:06.465Z,3.83
2018-09-21T02:48:34.498Z,4.23
2018-09-21T02:51:02.140Z,4.10
2018-09-21T02:53:29.826Z,4.23
2018-09-21T02:55:58.162Z,4.00
2018-09-21T02:58:25.854Z,3.40
2018-09-21T03:00:53.630Z,4.00
2018-09-21T03:03:21.210Z,4.17
2018-09-21T03:05:48.881Z,3.20
2018-09-21T03:08:16.542Z,3.70
2018-09-21T03:10:44.229Z,3.77
2018-09-21T03:13:11.962Z,3.30
2018-09-21T03:15:39.962Z,4.10
2018-09-21T03:18:07.670Z,3.70
2018-09-21T03:20:35.326Z,3.93
2018-09-21T03:23:03.237Z,3.73
2018-09-21T03:25:31.410Z,3.60
2018-09-21T03:27:59.472Z,3.90
2018-09-21T03:30:27.114Z,3.93
2018-09-21T03:32:55.132Z,3.57
2018-09-21T03:35:23.390Z,4.00
2018-09-21T03:37:51.017Z,3.40
2018-09-21T03:40:18.665Z,3.70
2018-09-21T03:42:46.327Z,4.07
2018-09-21T03:45:14.276Z,3.80
2018-09-21T03:47:42.043Z,3.80
2018-09-21T03:50:09.792Z,4.20
2018-09-21T03:52:37.689Z,3.93
2018-09-21T03:55:05.965Z,3.63
2018-09-21T03:57:33.681Z,3.57
2018-09-21T04:00:01.892Z,4.30
2018-09-21T04:02:29.522Z,3.90
2018-09-21T04:04:57.505Z,4.10
2018-09-21T04:07:25.191Z,3.90
2018-09-21T04:09:53.214Z,3.20
2018-09-21T04:12:20.893Z,3.80
2018-09-21T04:14:48.887Z,3.43
2018-09-21T04:17:16.579Z,3.77
2018-09-21T04:19:44.261Z,4.33
2018-09-21T04:22:11.908Z,4.00
2018-09-21T04:24:39.908Z,3.70
2018-09-21T04:27:07.645Z,4.13
2018-09-21T04:29:35.521Z,3.80
2018-09-21T04:32:03.182Z,3.83
2018-09-21T04:34:30.898Z,4.00
2018-09-21T04:36:58.532Z,3.80
2018-09-21T04:39:26.437Z,4.00
2018-09-21T04:41:54.596Z,4.20
2018-09-21T04:44:22.310Z,3.97
2018-09-21T04:46:51.030Z,4.53
2018-09-21T04:49:18.645Z,4.10
2018-09-21T04:51:46.569Z,3.70
2018-09-21T04:54:14.281Z,4.17
2018-09-21T04:56:41.911Z,3.50
2018-09-21T04:59:09.606Z,4.17
2018-09-21T05:01:37.352Z,4.17
2018-09-21T05:04:05.095Z,4.67
2018-09-21T05:06:32.714Z,4.50
2018-09-21T05:09:00.340Z,5.23
2018-09-21T05:11:28.074Z,4.23
2018-09-21T05:13:55.992Z,4.60
2018-09-21T05:16:23.617Z,3.67
2018-09-21T05:18:51.516Z,4.57
2018-09-21T05:21:19.152Z,3.90
2018-09-21T05:23:47.310Z,4.23
2018-09-21T05:26:16.344Z,4.10
2018-09-21T05:28:43.970Z,4.60
2018-09-21T05:31:12.199Z,4.20
2018-09-21T05:33:40.474Z,5.10
2018-09-21T05:36:08.080Z,4.80
2018-09-21T05:38:36.062Z,4.73
2018-09-21T05:41:04.321Z,5.07
2018-09-21T05:43:32.208Z,4.70
2018-09-21T05:46:00.017Z,4.50
2018-09-21T05:48:27.676Z,4.27
2018-09-21T05:50:55.410Z,5.50
2018-09-21T05:53:23.117Z,5.10
2018-09-21T05:55:50.830Z,4.57
2018-09-21T05:58:18.583Z,4.93
2018-09-21T06:00:46.207Z,5.10
2018-09-21T06:03:13.908Z,4.93
2018-09-21T06:05:41.936Z,5.17
2018-09-21T06:08:09.872Z,4.90
2018-09-21T06:10:37.542Z,4.63
2018-09-21T06:13:05.213Z,4.60
2018-09-21T06:15:33.218Z,5.10
2018-09-21T06:18:01.211Z,4.47
2018-09-21T06:20:28.876Z,5.30
2018-09-21T06:22:56.573Z,4.43
2018-09-21T06:25:24.589Z,5.47
2018-09-21T06:27:52.314Z,5.00
2018-09-21T06:30:19.978Z,5.90
2018-09-21T06:32:47.938Z,4.53
2018-09-21T06:35:15.573Z,4.53
2018-09-21T06:37:43.487Z,4.70
2018-09-21T06:40:11.130Z,5.00
2018-09-21T06:42:38.776Z,4.87
2018-09-21T06:47:40.876Z,5.03
2018-09-21T06:50:08.555Z,4.13
2018-09-21T06:52:36.236Z,4.60
2018-09-21T06:55:03.918Z,4.87
2018-09-21T06:57:31.845Z,5.10
2018-09-21T06:59:59.649Z,4.20
2018-09-21T07:02:27.674Z,5.10
2018-09-21T07:05:00.220Z,4.50
2018-09-21T07:07:27.870Z,5.10
2018-09-21T07:09:55.616Z,4.30
2018-09-21T07:12:23.254Z,5.13
2018-09-21T07:14:50.903Z,4.60
2018-09-21T07:17:18.994Z,4.60
2018-09-21T07:19:46.637Z,5.20
2018-09-21T07:22:14.334Z,4.70
2018-09-21T07:24:42.015Z,4.20
2018-09-21T07:27:10.027Z,6.87
2018-09-21T07:29:37.692Z,4.87
2018-09-21T07:32:05.362Z,5.00
2018-09-21T07:34:33.289Z,4.90
2018-09-21T07:37:00.945Z,4.50
2018-09-21T07:39:28.947Z,4.90
2018-09-21T07:41:56.745Z,5.33
2018-09-21T07:44:24.781Z,4.70
2018-09-21T07:46:52.733Z,5.20
2018-09-21T07:49:20.620Z,4.70
2018-09-21T07:51:48.583Z,4.80
2018-09-21T07:54:16.344Z,4.50
2018-09-21T07:56:44.346Z,4.77
2018-09-21T07:59:12.113Z,5.30
2018-09-21T08:01:40.130Z,5.20
2018-09-21T08:04:07.815Z,4.90
2018-09-21T08:06:35.817Z,5.43
2018-09-21T08:09:04.882Z,4.13
2018-09-21T08:11:32.527Z,4.50
2018-09-21T08:14:00.160Z,4.97
2018-09-21T08:16:28.079Z,4.37
2018-09-21T08:18:56.198Z,4.57
2018-09-21T08:21:23.884Z,4.37
2018-09-21T08:23:51.586Z,4.80
2018-09-21T08:26:19.337Z,3.83
2018-09-21T08:28:47.029Z,4.33
2018-09-21T08:31:14.748Z,4.60
2018-09-21T08:33:42.710Z,4.10
2018-09-21T08:36:10.690Z,5.13
2018-09-21T08:38:38.322Z,4.40
2018-09-21T08:41:06.344Z,4.07
2018-09-21T08:43:33.974Z,4.50
2018-09-21T08:46:01.642Z,4.70
2018-09-21T08:48:29.266Z,4.40
2018-09-21T08:50:56.846Z,3.67
2018-09-21T08:53:24.919Z,3.63
2018-09-21T08:55:53.132Z,4.00
2018-09-21T08:58:20.898Z,4.33
2018-09-21T09:00:48.524Z,4.47
2018-09-21T09:03:16.289Z,3.53
2018-09-21T09:05:48.346Z,3.77
2018-09-21T09:08:16.560Z,4.10
2018-09-21T09:10:44.469Z,3.67
2018-09-21T09:13:12.119Z,2.83
2018-09-21T09:15:39.822Z,2.70
2018-09-21T09:18:07.755Z,2.90
2018-09-21T09:20:35.416Z,3.03
2018-09-21T09:23:03.075Z,3.30
2018-09-21T09:25:30.799Z,2.87
2018-09-21T09:27:58.525Z,3.50
2018-09-21T09:30:26.231Z,3.10
2018-09-21T09:32:54.245Z,3.10
2018-09-21T09:35:22.501Z,3.27
2018-09-21T09:37:50.221Z,2.57
2018-09-21T09:40:17.885Z,3.23
2018-09-21T09:42:45.682Z,3.23
2018-09-21T09:45:13.324Z,2.50
2018-09-21T09:47:41.294Z,3.03
2018-09-21T09:50:08.988Z,2.57
2018-09-21T09:52:36.946Z,3.03
2018-09-21T09:55:04.639Z,2.23
2018-09-21T09:57:33.897Z,2.80
2018-09-21T10:00:01.632Z,2.50
2018-09-21T10:02:29.316Z,3.10
2018-09-21T10:04:56.953Z,3.30
2018-09-21T10:07:24.889Z,2.73
2018-09-21T10:09:52.719Z,2.67
2018-09-21T10:12:20.414Z,2.10
2018-09-21T10:14:48.166Z,2.63
2018-09-21T10:17:15.870Z,3.13
2018-09-21T10:19:44.029Z,2.53
2018-09-21T10:22:11.887Z,3.20
2018-09-21T10:24:40.294Z,2.60
2018-09-21T10:27:08.157Z,2.90
2018-09-21T10:29:35.785Z,2.50
2018-09-21T10:32:04.037Z,2.50
2018-09-21T10:34:31.799Z,2.43
2018-09-21T10:36:59.501Z,2.60
2018-09-21T10:39:27.440Z,2.50
2018-09-21T10:41:55.396Z,2.73
2018-09-21T10:44:23.101Z,2.63
2018-09-21T10:46:50.943Z,2.30
2018-09-21T10:49:18.584Z,2.50
2018-09-21T10:51:46.510Z,2.50
2018-09-21T10:54:14.541Z,2.40
2018-09-21T10:56:42.430Z,2.13
2018-09-21T10:59:10.246Z,2.47
2018-09-21T11:01:37.907Z,2.30
2018-09-21T11:04:05.553Z,2.70
2018-09-21T11:06:33.282Z,2.93
2018-09-21T11:09:00.901Z,2.77
2018-09-21T11:11:28.851Z,2.90
2018-09-21T11:13:56.535Z,2.80
2018-09-21T11:16:24.509Z,2.37
2018-09-21T11:18:52.198Z,3.47
2018-09-21T11:21:20.206Z,3.13
2018-09-21T11:23:48.330Z,3.10
2018-09-21T11:26:16.430Z,2.93
2018-09-21T11:28:44.460Z,2.50
2018-09-21T11:31:12.177Z,3.10
2018-09-21T11:33:39.843Z,2.70
2018-09-21T11:36:07.571Z,3.10
2018-09-21T11:38:35.223Z,2.60
2018-09-21T11:41:03.092Z,2.53
2018-09-21T11:43:30.766Z,2.90
2018-09-21T11:45:58.453Z,2.47
2018-09-21T11:48:26.210Z,2.83
2018-09-21T11:50:53.869Z,2.47
2018-09-21T11:53:21.605Z,3.50
2018-09-21T11:55:49.325Z,3.47
2018-09-21T11:58:17.602Z,2.27
2018-09-21T12:00:45.697Z,3.33
2018-09-21T12:03:14.293Z,3.20
2018-09-21T12:05:42.061Z,2.80
2018-09-21T12:08:09.800Z,2.83
2018-09-21T12:10:37.835Z,3.53
2018-09-21T12:13:05.774Z,3.50
2018-09-21T12:15:33.836Z,3.03
2018-09-21T12:18:01.806Z,2.83
2018-09-21T12:20:29.494Z,3.10
2018-09-21T12:22:57.380Z,3.90
2018-09-21T12:25:25.079Z,3.60
2018-09-21T12:27:52.814Z,2.90
2018-09-21T12:30:21.092Z,2.87
2018-09-21T12:32:48.780Z,4.17
2018-09-21T12:35:16.485Z,4.57
2018-09-21T12:37:44.605Z,3.50
2018-09-21T12:40:12.648Z,5.23
2018-09-21T12:42:40.659Z,5.00
2018-09-21T12:45:08.329Z,4.13
2018-09-21T12:47:37.058Z,3.67
2018-09-21T12:50:05.108Z,3.77
2018-09-21T12:52:32.830Z,4.30
2018-09-21T12:55:00.498Z,3.47
2018-09-21T12:57:28.269Z,3.13
2018-09-21T12:59:55.958Z,3.30
2018-09-21T13:02:23.682Z,2.90
2018-09-21T13:04:51.598Z,3.10
2018-09-21T13:07:19.266Z,2.90
2018-09-21T13:09:47.601Z,3.07
2018-09-21T13:12:18.790Z,2.83
2018-09-21T13:14:46.446Z,3.33
2018-09-21T13:17:14.694Z,2.80
2018-09-21T13:19:42.381Z,3.27
2018-09-21T13:22:10.075Z,2.90
2018-09-21T13:24:37.770Z,2.97
2018-09-21T13:27:05.476Z,2.33
2018-09-21T13:29:33.709Z,3.03
2018-09-21T13:32:02.754Z,3.30
2018-09-21T13:34:30.956Z,2.67
2018-09-21T13:36:58.621Z,2.97
2018-09-21T13:39:26.286Z,2.73
2018-09-21T13:41:53.957Z,2.40
2018-09-21T13:44:21.598Z,2.33
2018-09-21T13:46:51.400Z,2.10
2018-09-21T13:49:19.434Z,2.40
2018-09-21T13:51:48.188Z,2.80
2018-09-21T13:54:15.837Z,3.07
2018-09-21T13:56:43.866Z,2.00
2018-09-21T13:59:15.240Z,2.80
2018-09-21T14:01:46.009Z,1.90
2018-09-21T14:04:14.052Z,1.70
2018-09-21T14:06:41.948Z,2.57
2018-09-21T14:09:09.924Z,2.30
2018-09-21T14:11:39.168Z,2.30
2018-09-21T14:14:07.182Z,2.70
2018-09-21T14:16:34.854Z,2.20
2018-09-21T14:19:02.537Z,2.20
2018-09-21T14:21:30.615Z,2.47
2018-09-21T14:23:58.625Z,2.53
2018-09-21T14:26:26.601Z,2.30
2018-09-21T14:28:54.313Z,2.70
2018-09-21T14:31:22.621Z,1.80
2018-09-21T14:33:50.569Z,2.10
2018-09-21T14:36:18.705Z,2.60
2018-09-21T14:38:46.345Z,1.93
2018-09-21T14:41:14.021Z,2.47
2018-09-21T14:43:41.950Z,2.10
2018-09-21T14:46:09.665Z,2.23
2018-09-21T14:48:37.353Z,2.47
2018-09-21T14:51:05.316Z,2.10
2018-09-21T14:53:33.020Z,2.07
2018-09-21T14:56:00.687Z,2.20
2018-09-21T14:58:28.336Z,2.10
2018-09-21T15:00:56.549Z,1.97
2018-09-21T15:03:24.186Z,2.30
2018-09-21T15:05:51.854Z,2.50
2018-09-21T15:08:19.616Z,1.73
2018-09-21T15:10:47.591Z,2.00
2018-09-21T15:13:15.389Z,2.27
2018-09-21T15:15:43.310Z,2.03
2018-09-21T15:18:11.221Z,2.00
2018-09-21T15:20:39.175Z,1.77
2018-09-21T15:23:07.155Z,1.87
2018-09-21T15:25:34.830Z,2.30
2018-09-21T15:28:02.509Z,1.63
2018-09-21T15:30:30.381Z,2.07
2018-09-21T15:32:58.037Z,1.97
2018-09-21T15:35:26.065Z,1.73
2018-09-21T15:37:53.737Z,1.70
2018-09-21T15:40:21.420Z,1.87
2018-09-21T15:42:49.360Z,2.13
2018-09-21T15:45:17.034Z,2.47
2018-09-21T15:47:44.772Z,1.53
2018-09-21T15:50:12.868Z,1.97
2018-09-21T15:52:41.375Z,2.33
2018-09-21T15:55:09.158Z,2.03
2018-09-21T15:57:36.835Z,2.20
2018-09-21T16:00:05.455Z,1.53
2018-09-21T16:02:33.436Z,2.00
2018-09-21T16:05:01.092Z,1.90
2018-09-21T16:07:28.993Z,2.70
2018-09-21T16:09:56.656Z,1.83
2018-09-21T16:12:25.666Z,1.87
2018-09-21T16:14:53.677Z,1.80
2018-09-21T16:17:21.879Z,1.77
2018-09-21T16:19:49.560Z,2.03
2018-09-21T16:22:17.502Z,1.73
2018-09-21T16:24:45.560Z,2.20
2018-09-21T16:27:13.485Z,2.20
2018-09-21T16:29:41.327Z,1.83
2018-09-21T16:32:08.965Z,1.60
2018-09-21T16:34:36.678Z,1.97
2018-09-21T16:37:04.685Z,1.83
2018-09-21T16:39:32.362Z,1.70
2018-09-21T16:42:00.423Z,2.20
2018-09-21T16:44:28.197Z,1.97
2018-09-21T16:46:55.862Z,1.47
2018-09-21T16:49:23.551Z,1.40
2018-09-21T16:51:51.225Z,1.73
2018-09-21T16:54:18.946Z,1.83
2018-09-21T16:56:46.864Z,1.30
2018-09-21T16:59:14.742Z,1.60
2018-09-21T17:01:42.823Z,1.50
2018-09-21T17:04:11.413Z,2.00
2018-09-21T17:06:39.302Z,2.20
2018-09-21T17:09:09.142Z,2.07
2018-09-21T17:11:37.864Z,1.77
2018-09-21T17:14:05.830Z,1.43
2018-09-21T17:16:33.499Z,1.87
2018-09-21T17:19:01.317Z,1.63
2018-09-21T17:21:29.050Z,2.10
2018-09-21T17:23:56.739Z,1.53
2018-09-21T17:26:24.391Z,1.57
2018-09-21T17:28:52.304Z,1.93
2018-09-21T17:31:19.962Z,1.80
2018-09-21T17:33:47.966Z,2.03
2018-09-21T17:36:15.999Z,1.90
2018-09-21T17:38:45.233Z,1.90
2018-09-21T17:41:12.966Z,1.87
2018-09-21T17:43:40.919Z,1.70
2018-09-21T17:46:09.590Z,2.30
2018-09-21T17:48:37.868Z,1.57
2018-09-21T17:51:05.899Z,1.73
2018-09-21T17:53:34.051Z,1.90
2018-09-21T17:56:01.970Z,2.37
2018-09-21T17:58:30.194Z,2.17
2018-09-21T18:00:58.533Z,1.93
2018-09-21T18:03:26.110Z,1.83
2018-09-21T18:05:54.135Z,1.77
2018-09-21T18:08:21.866Z,2.03
2018-09-21T18:10:50.052Z,1.37
2018-09-21T18:13:17.825Z,1.50
2018-09-21T18:15:45.950Z,1.70
2018-09-21T18:18:13.628Z,2.00
2018-09-21T18:20:41.302Z,1.63
2018-09-21T18:23:10.106Z,1.63
2018-09-21T18:25:38.723Z,1.80
2018-09-21T18:28:06.415Z,1.40
2018-09-21T18:30:34.068Z,1.60
2018-09-21T18:33:01.723Z,2.07
2018-09-21T18:35:29.520Z,1.60
2018-09-21T18:37:57.177Z,2.40
2018-09-21T18:40:25.177Z,1.50
2018-09-21T18:42:53.111Z,1.60
2018-09-21T18:45:21.094Z,2.00
2018-09-21T18:47:48.889Z,2.03
2018-09-21T18:50:17.564Z,1.57
2018-09-21T18:52:45.616Z,1.33
2018-09-21T18:55:13.270Z,1.70
2018-09-21T18:57:40.970Z,1.70
2018-09-21T19:00:08.896Z,1.43
2018-09-21T19:02:36.629Z,1.53
2018-09-21T19:05:04.644Z,1.43
2018-09-21T19:07:33.134Z,1.60
2018-09-21T19:10:00.882Z,1.50
2018-09-21T19:12:28.899Z,1.73
2018-09-21T19:14:56.576Z,1.70
2018-09-21T19:17:25.083Z,1.60
2018-09-21T19:19:53.188Z,1.30
2018-09-21T19:22:21.536Z,1.50
2018-09-21T19:24:49.267Z,1.50
2018-09-21T19:27:17.269Z,1.33
2018-09-21T19:29:44.954Z,1.67
2018-09-21T19:32:12.626Z,1.37
2018-09-21T19:34:40.303Z,1.73
2018-09-21T19:37:08.363Z,1.40
2018-09-21T19:39:36.388Z,1.20
2018-09-21T19:42:04.409Z,1.33
2018-09-21T19:44:32.378Z,1.40
2018-09-21T19:47:00.094Z,1.60
2018-09-21T19:49:27.970Z,1.67
2018-09-21T19:51:55.663Z,1.10
2018-09-21T19:54:23.433Z,1.70
2018-09-21T19:56:51.127Z,1.57
2018-09-21T19:59:18.796Z,1.40
2018-09-21T20:01:46.513Z,1.40
2018-09-21T20:04:14.237Z,1.43
2018-09-21T20:06:42.246Z,1.40
2018-09-21T20:09:11.196Z,1.13
2018-09-21T20:11:39.295Z,1.20
2018-09-21T20:14:06.986Z,1.77
2018-09-21T20:16:34.762Z,1.87
2018-09-21T20:19:02.382Z,1.70
2018-09-21T20:21:30.285Z,1.40
2018-09-21T20:23:59.323Z,1.60
2018-09-21T20:26:27.041Z,1.47
2018-09-21T20:28:55.061Z,1.10
2018-09-21T20:31:28.499Z,1.10
2018-09-21T20:33:56.222Z,1.30
2018-09-21T20:36:23.938Z,1.47
2018-09-21T20:38:51.991Z,1.67
2018-09-21T20:41:19.681Z,1.20
2018-09-21T20:43:47.393Z,1.57
2018-09-21T20:46:15.362Z,1.00
2018-09-21T20:48:43.045Z,1.23
2018-09-21T20:51:10.794Z,1.00
2018-09-21T20:53:38.414Z,1.50
2018-09-21T20:56:06.142Z,1.40
2018-09-21T20:58:33.818Z,1.30
2018-09-21T21:01:01.769Z,1.67
2018-09-21T21:03:29.801Z,1.20
2018-09-21T21:05:57.544Z,1.07
2018-09-21T21:08:25.208Z,1.10
2018-09-21T21:10:53.403Z,1.20
2018-09-21T21:13:21.115Z,1.30
2018-09-21T21:15:48.768Z,1.30
2018-09-21T21:18:16.722Z,1.40
2018-09-21T21:20:44.409Z,1.30
2018-09-21T21:23:13.652Z,1.20
2018-09-21T21:25:41.358Z,1.20
2018-09-21T21:28:09.090Z,1.37
2018-09-21T21:30:36.809Z,1.30
2018-09-21T21:33:04.471Z,1.00
2018-09-21T21:35:32.149Z,1.20
2018-09-21T21:38:00.098Z,1.00
2018-09-21T21:40:27.823Z,1.10
2018-09-21T21:42:56.082Z,1.00
2018-09-21T21:45:24.449Z,1.00
2018-09-21T21:47:52.108Z,1.00
2018-09-21T21:50:20.110Z,1.20
2018-09-21T21:52:47.878Z,1.43
2018-09-21T21:55:15.548Z,1.13
2018-09-21T21:57:43.303Z,1.10
2018-09-21T22:00:11.316Z,1.10
2018-09-21T22:02:39.315Z,1.43
2018-09-21T22:05:07.022Z,1.23
2018-09-21T22:07:36.151Z,1.00
2018-09-21T22:10:05.677Z,1.20
2018-09-21T22:12:39.009Z,1.10
2018-09-21T22:15:11.754Z,1.10
2018-09-21T22:17:39.780Z,1.03
2018-09-21T22:20:08.146Z,1.33
2018-09-21T22:22:35.887Z,1.10
2018-09-21T22:25:03.672Z,1.70
2018-09-21T22:27:31.549Z,1.20
2018-09-21T22:29:59.633Z,1.10
2018-09-21T22:32:27.602Z,1.10
2018-09-21T22:34:55.273Z,1.53
2018-09-21T22:37:22.936Z,1.20
2018-09-21T22:39:51.377Z,1.20
2018-09-21T22:42:19.103Z,1.20
2018-09-21T22:44:48.296Z,1.10
2018-09-21T22:47:15.936Z,1.10
2018-09-21T22:49:44.706Z,1.00
2018-09-21T22:52:12.373Z,1.20
2018-09-21T22:54:40.079Z,1.40
2018-09-21T22:57:08.111Z,1.60
2018-09-21T22:59:37.316Z,1.17
2018-09-21T23:02:05.019Z,1.30
2018-09-21T23:04:32.830Z,1.33
2018-09-21T23:07:00.583Z,1.20
2018-09-21T23:09:28.481Z,1.00
2018-09-21T23:11:56.234Z,1.53
2018-09-21T23:14:24.152Z,1.00
2018-09-21T23:16:51.840Z,1.30
2018-09-21T23:19:19.632Z,1.00
2018-09-21T23:21:47.353Z,1.10
2018-09-21T23:24:15.032Z,0.90
2018-09-21T23:26:43.267Z,1.13
2018-09-21T23:29:11.375Z,1.10
2018-09-21T23:31:39.571Z,1.13
2018-09-21T23:34:07.244Z,1.50
2018-09-21T23:36:35.266Z,1.17
2018-09-21T23:39:03.288Z,1.10
2018-09-21T23:41:31.282Z,1.07
2018-09-21T23:43:59.257Z,1.10
2018-09-21T23:46:26.957Z,1.10
2018-09-21T23:48:54.738Z,1.20
2018-09-21T23:51:22.479Z,1.10
2018-09-21T23:53:50.254Z,1.00
2018-09-21T23:56:18.179Z,1.00
2018-09-21T23:58:45.908Z,1.20
